Time;durP1;ratioP1;P1;durP2;ratioP2;P2;SDS_P1;SDS_P2;PMS_P1;PMS_P2;Temp;Humidity;BMP_temperature;BMP_pressure;BME280_temperature;BME280_humidity;BME280_pressure;Samples;Min_cycle;Max_cycle;Signal;HPM_P1;HPM_P2
2024/03/06 00:00:41;;;;;;;23.80;15.50;;;;;;;7.89;50.50;100795.39;108652;1254;65130;-59
2024/03/06 00:03:08;;;;;;;15.20;7.00;;;;;;;7.92;50.48;100795.91;108646;1256;62841;-59
2024/03/06 00:05:36;;;;;;;16.40;7.30;;;;;;;7.93;50.39;100794.43;108625;1256;64648;-59
2024/03/06 00:08:04;;;;;;;13.10;6.20;;;;;;;7.93;50.45;100795.16;108662;1254;59564;-61
2024/03/06 00:10:31;;;;;;;22.10;15.30;;;;;;;7.92;50.39;100800.66;108658;1254;60361;-59
2024/03/06 00:12:59;;;;;;;23.20;6.90;;;;;;;7.92;50.60;100800.84;108624;1254;63833;-59
2024/03/06 00:15:27;;;;;;;12.40;6.90;;;;;;;7.91;50.58;100803.17;105678;1256;60523;-63
2024/03/06 00:17:55;;;;;;;13.80;6.60;;;;;;;7.90;50.61;100805.86;104206;1258;62718;-64
2024/03/06 00:20:23;;;;;;;22.40;14.30;;;;;;;7.88;50.61;100802.27;104266;1254;60380;-61
2024/03/06 00:22:51;;;;;;;15.80;8.30;;;;;;;7.86;50.66;100797.85;104295;1256;62175;-61
2024/03/06 00:25:18;;;;;;;12.10;5.70;;;;;;;7.90;50.59;100798.00;105117;1257;67930;-58
2024/03/06 00:27:47;;;;;;;15.20;7.20;;;;;;;7.95;50.54;100801.31;104228;1254;61548;-63
2024/03/06 00:30:15;;;;;;;20.70;13.80;;;;;;;7.98;50.44;100800.92;108640;1255;62543;-58
2024/03/06 00:32:42;;;;;;;13.40;6.50;;;;;;;8.00;50.39;100803.10;108536;1254;58495;-61
2024/03/06 00:35:11;;;;;;;13.00;6.00;;;;;;;8.00;50.36;100800.33;105394;1259;60921;-60
2024/03/06 00:37:39;;;;;;;16.00;6.10;;;;;;;7.99;50.21;100799.29;108602;1254;63698;-59
2024/03/06 00:40:08;;;;;;;23.80;14.40;;;;;;;8.01;50.10;100797.84;105630;1256;61433;-61
2024/03/06 00:42:36;;;;;;;12.50;5.50;;;;;;;7.99;50.08;100797.03;106440;1259;63898;-61
2024/03/06 00:45:04;;;;;;;17.80;6.40;;;;;;;7.97;50.08;100801.02;108625;1254;59077;-63
2024/03/06 00:47:34;;;;;;;22.20;14.30;;;;;;;7.93;50.10;100800.21;108672;1254;59139;-61
2024/03/06 00:50:02;;;;;;;12.60;6.00;;;;;;;7.88;50.05;100804.71;107493;1256;63715;-59
2024/03/06 00:52:30;;;;;;;17.90;7.40;;;;;;;7.82;50.28;100804.58;108590;1255;69471;-60
2024/03/06 00:54:57;;;;;;;13.10;7.00;;;;;;;7.79;50.31;100805.28;108649;1257;63840;-61
2024/03/06 00:57:25;;;;;;;19.20;13.20;;;;;;;7.77;50.37;100804.01;108641;1259;58972;-60
2024/03/06 00:59:52;;;;;;;17.50;6.90;;;;;;;7.74;50.39;100805.93;108734;1254;59248;-62
2024/03/06 01:02:20;;;;;;;12.60;7.00;;;;;;;7.73;50.47;100808.28;104467;1254;63700;-61
2024/03/06 01:04:47;;;;;;;13.60;6.60;;;;;;;7.72;50.51;100810.63;104187;1257;62374;-61
2024/03/06 01:07:15;;;;;;;23.50;14.00;;;;;;;7.70;50.59;100810.59;108615;1254;62518;-62
2024/03/06 01:09:43;;;;;;;13.70;6.30;;;;;;;7.69;50.64;100811.16;108580;1254;59065;-62
2024/03/06 01:12:10;;;;;;;12.10;5.90;;;;;;;7.69;50.61;100810.30;108628;1255;60954;-60
2024/03/06 01:14:38;;;;;;;15.20;6.50;;;;;;;7.70;50.73;100815.30;108535;1254;65434;-62
2024/03/06 01:17:07;;;;;;;14.40;6.10;;;;;;;7.70;50.73;100812.13;107327;1254;61522;-61
2024/03/06 01:19:34;;;;;;;22.20;14.20;;;;;;;7.70;50.78;100815.42;104084;1260;62527;-62
2024/03/06 01:22:02;;;;;;;15.50;5.70;;;;;;;7.70;50.80;100816.35;104204;1256;60600;-62
2024/03/06 01:24:29;;;;;;;16.70;6.50;;;;;;;7.66;50.77;100821.27;104030;1254;60537;-63
2024/03/06 01:26:57;;;;;;;11.70;6.20;;;;;;;7.62;50.73;100826.58;104216;1254;65577;-63
2024/03/06 01:29:25;;;;;;;18.00;13.30;;;;;;;7.60;50.78;100834.03;104322;1259;61532;-63
2024/03/06 01:31:52;;;;;;;13.70;6.80;;;;;;;7.63;50.77;100831.76;104178;1257;62511;-64
2024/03/06 01:34:20;;;;;;;13.30;5.80;;;;;;;7.68;50.86;100829.53;104217;1254;60390;-63
2024/03/06 01:36:48;;;;;;;21.20;7.80;;;;;;;7.70;50.82;100831.17;104218;1257;61065;-63
2024/03/06 01:39:16;;;;;;;24.20;15.10;;;;;;;7.66;50.67;100830.38;104232;1255;63745;-61
2024/03/06 01:41:47;;;;;;;11.50;5.50;;;;;;;7.60;50.66;100830.52;108653;1257;60335;-63
2024/03/06 01:44:18;;;;;;;10.80;4.70;;;;;;;7.55;50.68;100835.39;108661;1259;62553;-62
2024/03/06 01:46:46;;;;;;;12.90;6.20;;;;;;;7.49;50.78;100833.48;108628;1256;59781;-62
2024/03/06 01:49:15;;;;;;;24.20;14.70;;;;;;;7.46;50.90;100836.63;108651;1254;58777;-62
2024/03/06 01:51:55;;;;;;;18.30;6.80;;;;;;;7.47;50.94;100836.40;108642;1254;63719;-62
2024/03/06 01:54:23;;;;;;;13.30;6.40;;;;;;;7.46;50.98;100836.06;108638;1257;62871;-62
2024/03/06 01:56:50;;;;;;;13.40;5.70;;;;;;;7.47;51.05;100837.45;105362;1257;64431;-61
2024/03/06 01:59:19;;;;;;;23.80;14.90;;;;;;;7.47;51.02;100833.04;104159;1255;60787;-61
2024/03/06 02:02:02;;;;;;;15.70;7.60;;;;;;;7.48;50.96;100830.06;108551;1254;58547;-62
2024/03/06 02:04:30;;;;;;;17.80;6.40;;;;;;;7.44;50.90;100832.52;108516;1254;67024;-63
2024/03/06 02:06:58;;;;;;;18.00;6.90;;;;;;;7.39;50.96;100836.49;108481;1254;60380;-61
2024/03/06 02:09:25;;;;;;;16.80;7.90;;;;;;;7.34;51.03;100837.48;108617;1256;62620;-57
2024/03/06 02:11:53;;;;;;;12.20;6.60;;;;;;;7.31;51.16;100841.38;108643;1257;59695;-57
2024/03/06 02:14:21;;;;;;;14.40;6.20;;;;;;;7.30;51.23;100841.93;108657;1254;59200;-57
2024/03/06 02:16:49;;;;;;;22.10;15.70;;;;;;;7.33;51.29;100840.72;108618;1254;63896;-57
2024/03/06 02:19:16;;;;;;;15.20;7.00;;;;;;;7.36;51.33;100842.27;105340;1257;61566;-58
2024/03/06 02:21:44;;;;;;;13.10;6.10;;;;;;;7.37;51.26;100842.88;104341;1257;65306;-57
2024/03/06 02:24:13;;;;;;;14.50;6.90;;;;;;;7.35;51.26;100842.16;104404;1259;61551;-56
2024/03/06 02:26:40;;;;;;;13.60;5.50;;;;;;;7.35;51.28;100848.08;108593;1254;58912;-58
2024/03/06 02:29:08;;;;;;;14.40;6.10;;;;;;;7.41;51.32;100852.81;108586;1255;63955;-57
2024/03/06 02:31:36;;;;;;;23.00;14.00;;;;;;;7.49;51.33;100854.27;108366;1254;63967;-58
2024/03/06 02:34:06;;;;;;;12.70;6.00;;;;;;;7.54;51.30;100856.38;108392;1256;63977;-57
2024/03/06 02:36:34;;;;;;;15.10;5.50;;;;;;;7.57;51.18;100855.50;108676;1254;58363;-57
2024/03/06 02:39:01;;;;;;;24.70;16.70;;;;;;;7.57;51.15;100857.07;106669;1254;60252;-57
2024/03/06 02:41:30;;;;;;;15.50;6.60;;;;;;;7.56;51.13;100862.93;108670;1255;65415;-57
2024/03/06 02:43:58;;;;;;;17.20;6.70;;;;;;;7.55;51.16;100867.70;108645;1254;60326;-56
2024/03/06 02:46:26;;;;;;;15.00;7.90;;;;;;;7.51;51.25;100866.85;108631;1256;64272;-58
2024/03/06 02:48:54;;;;;;;14.30;7.50;;;;;;;7.45;51.34;100867.02;106894;1259;60539;-56
2024/03/06 02:51:22;;;;;;;12.40;5.50;;;;;;;7.38;51.52;100871.80;108653;1258;60480;-58
2024/03/06 02:53:53;;;;;;;25.90;16.70;;;;;;;7.32;51.68;100875.52;107361;1254;63688;-59
2024/03/06 02:56:21;;;;;;;14.60;7.90;;;;;;;7.26;51.89;100873.40;108728;1259;61982;-59
2024/03/06 02:58:48;;;;;;;15.00;7.00;;;;;;;7.22;52.10;100877.27;108623;1259;64041;-58
2024/03/06 03:01:17;;;;;;;15.80;8.00;;;;;;;7.17;52.30;100874.42;108600;1256;58659;-58
2024/03/06 03:03:46;;;;;;;14.30;7.30;;;;;;;7.12;52.58;100875.95;108651;1254;59086;-59
2024/03/06 03:06:14;;;;;;;15.80;7.20;;;;;;;7.11;52.75;100879.66;108618;1256;73871;-59
2024/03/06 03:08:42;;;;;;;21.10;8.80;;;;;;;7.13;52.77;100880.91;108728;1254;61622;-58
2024/03/06 03:11:10;;;;;;;15.60;8.00;;;;;;;7.16;52.87;100886.18;108675;1254;64832;-57
2024/03/06 03:13:37;;;;;;;28.90;19.00;;;;;;;7.16;52.98;100883.05;108682;1254;59922;-58
2024/03/06 03:16:05;;;;;;;15.90;8.40;;;;;;;7.14;53.03;100882.45;107447;1256;60483;-57
2024/03/06 03:18:33;;;;;;;16.30;8.00;;;;;;;7.11;53.08;100886.83;104811;1254;65034;-59
2024/03/06 03:21:01;;;;;;;18.60;7.90;;;;;;;7.07;53.17;100887.90;104177;1256;61288;-58
2024/03/06 03:23:29;;;;;;;15.60;7.60;;;;;;;7.01;53.28;100890.53;106731;1259;62552;-57
2024/03/06 03:25:56;;;;;;;15.70;8.40;;;;;;;6.95;53.46;100889.82;104218;1256;60442;-58
2024/03/06 03:28:24;;;;;;;17.70;8.20;;;;;;;6.89;53.62;100895.05;104277;1254;60366;-57
2024/03/06 03:30:52;;;;;;;29.70;21.10;;;;;;;6.81;53.76;100897.73;104192;1256;65190;-55
2024/03/06 03:33:19;;;;;;;18.00;9.80;;;;;;;6.77;53.88;100897.98;108632;1254;60337;-59
2024/03/06 03:35:47;;;;;;;21.80;9.80;;;;;;;6.77;53.97;100901.84;108630;1259;63835;-59
2024/03/06 03:38:14;;;;;;;18.40;8.10;;;;;;;6.81;54.02;100903.02;108615;1254;58824;-60
2024/03/06 03:40:42;;;;;;;18.90;10.20;;;;;;;6.80;54.02;100905.13;108624;1259;59971;-59
2024/03/06 03:43:11;;;;;;;23.80;9.30;;;;;;;6.77;54.01;100908.27;107102;1256;65174;-59
2024/03/06 03:45:38;;;;;;;19.30;8.50;;;;;;;6.70;54.01;100905.33;106216;1256;61544;-58
2024/03/06 03:48:06;;;;;;;32.60;22.30;;;;;;;6.63;54.17;100908.88;104240;1257;62529;-58
2024/03/06 03:50:34;;;;;;;21.10;9.30;;;;;;;6.55;54.18;100912.27;108694;1254;58954;-59
2024/03/06 03:53:02;;;;;;;19.50;9.60;;;;;;;6.48;54.30;100916.81;106794;1258;60085;-58
2024/03/06 03:55:29;;;;;;;21.40;10.10;;;;;;;6.44;54.43;100919.64;104336;1259;65034;-58
2024/03/06 03:57:57;;;;;;;32.40;22.80;;;;;;;6.39;54.46;100918.04;105972;1259;61524;-59
2024/03/06 04:00:24;;;;;;;18.60;8.40;;;;;;;6.36;54.36;100917.14;104107;1257;62687;-58
2024/03/06 04:02:52;;;;;;;23.00;9.20;;;;;;;6.37;54.38;100920.73;104143;1259;191999;-59
2024/03/06 04:06:48;;;;;;;18.40;8.70;;;;;;;5.97;55.45;100927.85;101671;1295;604282;-58
2024/03/06 04:09:16;;;;;;;19.40;9.80;;;;;;;6.25;54.76;100924.50;103447;1268;60110;-59
2024/03/06 04:11:44;;;;;;;41.30;9.70;;;;;;;6.29;54.72;100924.11;103493;1270;59855;-58
2024/03/06 04:14:12;;;;;;;21.20;9.40;;;;;;;6.31;54.73;100930.65;103450;1267;63324;-59
2024/03/06 04:16:39;;;;;;;19.30;9.10;;;;;;;6.30;54.73;100932.07;103509;1267;63808;-58
2024/03/06 04:19:07;;;;;;;19.10;9.00;;;;;;;6.29;54.67;100937.68;103504;1267;63913;-58
2024/03/06 04:21:34;;;;;;;20.40;9.40;;;;;;;6.27;54.62;100943.23;103653;1266;181167;-59
2024/03/06 04:24:02;;;;;;;16.90;8.60;;;;;;;6.24;54.58;100945.97;108093;1263;58725;-59
2024/03/06 04:26:30;;;;;;;21.10;9.40;;;;;;;6.25;54.40;100955.19;108115;1263;63426;-56
2024/03/06 04:28:57;;;;;;;18.30;8.50;;;;;;;6.30;54.42;100956.64;104211;1267;60267;-61
2024/03/06 04:31:25;;;;;;;18.60;8.80;;;;;;;6.35;54.28;100958.85;103642;1262;62575;-59
2024/03/06 04:33:53;;;;;;;19.10;9.10;;;;;;;6.35;54.21;100959.73;106170;1264;59555;-59
2024/03/06 04:36:20;;;;;;;20.00;9.30;;;;;;;6.31;54.25;100958.85;103696;1263;60446;-58
2024/03/06 04:38:48;;;;;;;15.10;8.20;;;;;;;6.26;54.22;100964.02;105653;1262;64206;-58
2024/03/06 04:41:18;;;;;;;22.40;10.90;;;;;;;6.21;54.31;100967.96;103672;1264;61586;-59
2024/03/06 04:43:46;;;;;;;26.40;11.80;;;;;;;6.18;54.23;100971.24;108064;1262;62537;-60
2024/03/06 04:46:14;;;;;;;24.90;11.60;;;;;;;6.14;54.35;100971.08;105653;1268;59667;-59
2024/03/06 04:48:42;;;;;;;23.40;10.70;;;;;;;6.10;54.42;100971.99;103575;1263;60638;-58
2024/03/06 04:51:09;;;;;;;20.10;9.70;;;;;;;6.05;54.57;100979.02;103605;1264;62894;-60
2024/03/06 04:53:37;;;;;;;18.50;10.30;;;;;;;6.02;54.65;100976.71;103519;1267;62208;-56
2024/03/06 04:56:07;;;;;;;19.30;10.90;;;;;;;6.05;54.67;100978.52;103625;1264;62571;-56
2024/03/06 04:58:35;;;;;;;18.70;9.90;;;;;;;6.13;54.66;100982.44;106787;1255;59787;-56
2024/03/06 05:01:06;;;;;;;25.00;12.70;;;;;;;6.20;54.40;100985.60;104318;1260;59699;-57
2024/03/06 05:03:34;;;;;;;25.30;9.30;;;;;;;6.21;54.49;100983.61;104234;1254;62914;-58
2024/03/06 05:06:21;;;;;;;18.70;9.00;;;;;;;6.22;54.55;100984.95;104012;1260;60263;-59
2024/03/06 05:09:07;;;;;;;15.30;9.80;;;;;;;6.22;54.48;100987.41;108541;1257;62959;-57
2024/03/06 05:11:52;;;;;;;23.50;9.60;;;;;;;6.15;54.29;100991.07;108535;1256;58993;-58
2024/03/06 05:14:36;;;;;;;25.00;10.00;;;;;;;6.08;54.40;100992.98;108545;1256;59479;-61
2024/03/06 05:17:21;;;;;;;19.70;9.70;;;;;;;6.01;54.41;100993.86;105899;1256;65189;-56
2024/03/06 05:20:07;;;;;;;23.10;10.40;;;;;;;5.93;54.51;100997.01;104183;1257;60247;-56
2024/03/06 05:22:52;;;;;;;23.40;10.00;;;;;;;5.89;54.59;100997.92;108526;1260;63813;-57
2024/03/06 05:25:37;;;;;;;22.20;10.20;;;;;;;5.90;54.37;100998.24;108582;1256;59864;-58
2024/03/06 05:28:22;;;;;;;25.70;10.00;;;;;;;5.90;54.21;101000.81;108523;1257;60097;-58
2024/03/06 05:31:17;;;;;;;21.40;11.60;;;;;;;5.89;54.20;101002.27;108578;1256;62897;-56
2024/03/06 05:34:02;;;;;;;21.40;10.60;;;;;;;5.88;54.25;101004.23;108527;1257;60298;-58
2024/03/06 05:36:47;;;;;;;18.00;8.40;;;;;;;5.87;54.24;101008.31;107855;1257;62520;-59
2024/03/06 05:39:32;;;;;;;20.30;10.50;;;;;;;5.82;54.22;101014.49;104195;1256;59611;-61
2024/03/06 05:42:17;;;;;;;19.10;11.60;;;;;;;5.77;54.27;101011.06;104202;1256;60516;-60
2024/03/06 05:45:05;;;;;;;22.50;10.40;;;;;;;5.71;54.31;101017.41;104189;1256;62942;-57
2024/03/06 05:47:50;;;;;;;21.80;12.70;;;;;;;5.65;54.46;101018.27;108541;1257;61590;-58
2024/03/06 05:50:35;;;;;;;19.00;9.30;;;;;;;5.63;54.57;101020.82;108543;1257;62683;-58
2024/03/06 05:53:19;;;;;;;22.70;9.00;;;;;;;5.70;54.66;101017.66;105115;1256;59560;-56
2024/03/06 05:56:06;;;;;;;25.40;12.50;;;;;;;5.79;54.31;101016.54;104331;1257;59764;-56
2024/03/06 05:58:51;;;;;;;22.30;9.90;;;;;;;5.82;54.25;101017.27;104480;1256;64196;-56
2024/03/06 06:01:20;;;;;;;22.60;10.40;;;;;;;5.79;54.04;101018.29;104177;1257;64494;-58
2024/03/06 06:03:48;;;;;;;16.00;8.80;;;;;;;5.73;53.84;101026.41;104255;1257;62625;-59
2024/03/06 06:06:16;;;;;;;24.00;11.00;;;;;;;5.66;53.91;101026.55;104195;1254;59741;-56
2024/03/06 06:08:44;;;;;;;22.60;11.50;;;;;;;5.61;53.91;101030.98;104337;1254;59774;-54
2024/03/06 06:11:12;;;;;;;22.40;11.10;;;;;;;5.56;54.00;101030.86;108716;1254;63124;-56
2024/03/06 06:13:39;;;;;;;19.10;9.80;;;;;;;5.54;53.99;101033.93;108599;1254;61601;-57
2024/03/06 06:16:07;;;;;;;20.30;8.50;;;;;;;5.51;54.03;101034.08;105685;1257;62556;-56
2024/03/06 06:18:35;;;;;;;19.90;11.40;;;;;;;5.52;53.90;101038.72;104249;1254;59774;-59
2024/03/06 06:21:07;;;;;;;22.70;11.70;;;;;;;5.56;53.97;101042.39;104246;1256;59647;-59
2024/03/06 06:23:35;;;;;;;23.60;11.10;;;;;;;5.58;54.05;101044.88;104319;1256;64214;-57
2024/03/06 06:26:02;;;;;;;25.90;10.50;;;;;;;5.59;53.79;101041.52;104390;1257;60245;-60
2024/03/06 06:28:30;;;;;;;26.00;11.70;;;;;;;5.58;53.78;101042.61;104186;1260;62507;-57
2024/03/06 06:30:58;;;;;;;39.70;11.30;;;;;;;5.55;53.87;101051.46;104159;1260;61739;-56
2024/03/06 06:33:25;;;;;;;28.80;15.60;;;;;;;5.53;53.96;101051.59;104102;1254;61555;-61
2024/03/06 06:35:53;;;;;;;24.60;11.90;;;;;;;5.48;53.76;101055.10;104156;1254;63031;-57
2024/03/06 06:38:21;;;;;;;24.60;13.10;;;;;;;5.44;53.88;101055.98;108742;1256;73325;-58
2024/03/06 06:40:49;;;;;;;42.20;26.70;;;;;;;5.44;53.79;101058.09;108628;1256;63804;-59
2024/03/06 06:43:16;;;;;;;23.40;10.40;;;;;;;5.49;53.76;101058.35;108679;1256;58311;-60
2024/03/06 06:45:44;;;;;;;23.90;11.00;;;;;;;5.54;53.98;101063.51;104540;1254;59624;-58
2024/03/06 06:48:12;;;;;;;26.30;13.20;;;;;;;5.58;53.95;101064.17;104330;1260;64345;-56
2024/03/06 06:50:39;;;;;;;24.00;11.00;;;;;;;5.61;53.84;101066.50;108637;1254;60276;-56
2024/03/06 06:53:07;;;;;;;27.00;12.80;;;;;;;5.64;53.52;101066.20;108639;1254;64840;-58
2024/03/06 06:55:36;;;;;;;29.10;13.90;;;;;;;5.63;53.44;101065.89;105405;1257;59765;-57
2024/03/06 06:58:04;;;;;;;26.40;11.30;;;;;;;5.62;53.35;101069.06;104822;1257;62138;-58
2024/03/06 07:00:32;;;;;;;25.20;11.40;;;;;;;5.62;53.31;101067.69;108617;1254;64175;-58
2024/03/06 07:03:00;;;;;;;24.60;12.70;;;;;;;5.61;53.11;101072.96;107590;1257;61708;-58
2024/03/06 07:05:27;;;;;;;27.00;11.40;;;;;;;5.57;52.93;101076.27;104240;1259;62547;-58
2024/03/06 07:07:55;;;;;;;26.40;9.50;;;;;;;5.55;53.07;101081.05;104232;1256;59907;-59
2024/03/06 07:10:23;;;;;;;29.70;12.30;;;;;;;5.60;53.14;101078.55;108702;1257;59054;-59
2024/03/06 07:12:51;;;;;;;22.10;10.20;;;;;;;5.66;52.93;101079.64;108629;1254;64342;-58
2024/03/06 07:15:18;;;;;;;28.10;12.80;;;;;;;5.70;52.88;101080.85;108621;1256;63304;-58
2024/03/06 07:17:46;;;;;;;24.50;11.40;;;;;;;5.75;52.94;101078.86;106178;1259;63927;-57
2024/03/06 07:20:15;;;;;;;23.70;9.40;;;;;;;5.77;52.37;101081.56;104296;1257;59631;-55
2024/03/06 07:22:43;;;;;;;26.90;12.70;;;;;;;5.75;52.30;101083.57;108615;1254;62813;-56
2024/03/06 07:25:10;;;;;;;22.90;12.10;;;;;;;5.73;52.28;101088.90;108335;1256;65003;-56
2024/03/06 07:27:38;;;;;;;28.10;12.10;;;;;;;5.68;52.33;101092.80;104192;1260;63400;-56
2024/03/06 07:30:07;;;;;;;23.80;10.70;;;;;;;5.60;52.24;101090.20;104207;1259;62636;-56
2024/03/06 07:32:37;;;;;;;21.50;12.10;;;;;;;5.54;52.35;101096.95;108643;1256;60054;-57
2024/03/06 07:35:06;;;;;;;23.50;11.20;;;;;;;5.51;52.49;101098.48;108651;1254;57981;-57
2024/03/06 07:37:33;;;;;;;27.60;12.00;;;;;;;5.49;52.53;101096.13;104742;1254;64374;-57
2024/03/06 07:40:02;;;;;;;24.40;10.60;;;;;;;5.51;52.44;101095.89;108447;1256;62775;-58
2024/03/06 07:42:29;;;;;;;22.90;9.80;;;;;;;5.57;52.27;101097.48;104329;1255;62622;-56
2024/03/06 07:44:57;;;;;;;21.40;11.40;;;;;;;5.64;52.20;101099.92;104224;1254;59935;-57
2024/03/06 07:47:24;;;;;;;19.00;9.80;;;;;;;5.71;52.22;101103.96;104222;1257;59839;-58
2024/03/06 07:49:52;;;;;;;22.90;10.10;;;;;;;5.76;52.04;101101.08;104092;1254;62975;-59
2024/03/06 07:52:20;;;;;;;22.30;8.70;;;;;;;5.82;52.08;101099.45;104192;1258;60580;-56
2024/03/06 07:54:48;;;;;;;18.20;9.50;;;;;;;5.89;51.93;101102.39;108616;1257;63789;-57
2024/03/06 07:57:16;;;;;;;23.70;11.10;;;;;;;5.96;51.59;101104.37;107263;1259;59557;-57
2024/03/06 07:59:43;;;;;;;20.10;8.60;;;;;;;5.98;51.12;101107.59;106235;1257;60108;-56
2024/03/06 08:02:11;;;;;;;24.00;9.70;;;;;;;5.98;51.16;101112.80;104132;1255;66180;-57
2024/03/06 08:04:39;;;;;;;32.90;10.50;;;;;;;5.99;51.15;101114.35;104432;1251;65064;-56
2024/03/06 08:07:06;;;;;;;16.00;7.00;;;;;;;6.00;51.18;101112.52;104478;1253;62698;-56
2024/03/06 08:09:34;;;;;;;24.70;8.80;;;;;;;6.02;50.77;101109.98;104449;1251;61853;-58
2024/03/06 08:12:01;;;;;;;20.50;10.30;;;;;;;6.00;50.44;101109.73;104389;1251;61049;-57
2024/03/06 08:14:29;;;;;;;22.50;8.90;;;;;;;5.99;50.63;101115.52;108816;1251;77010;-56
2024/03/06 08:16:57;;;;;;;22.00;9.70;;;;;;;6.03;50.63;101119.34;108845;1251;69873;-57
2024/03/06 08:19:26;;;;;;;19.30;9.00;;;;;;;6.10;50.59;101119.70;108822;1256;63882;-56
2024/03/06 08:21:54;;;;;;;20.80;8.50;;;;;;;6.16;50.47;101118.70;108874;1251;59253;-56
2024/03/06 08:24:21;;;;;;;18.80;8.20;;;;;;;6.23;50.40;101119.38;108824;1251;62602;-56
2024/03/06 08:26:49;;;;;;;16.60;7.80;;;;;;;6.27;50.24;101118.85;108936;1251;63847;-57
2024/03/06 08:29:17;;;;;;;21.40;9.40;;;;;;;6.28;50.13;101121.39;108835;1251;61859;-59
2024/03/06 08:31:44;;;;;;;20.20;9.70;;;;;;;6.31;50.04;101122.80;108839;1254;63904;-59
2024/03/06 08:34:12;;;;;;;20.50;9.00;;;;;;;6.38;49.86;101124.06;108806;1251;62029;-61
2024/03/06 08:36:41;;;;;;;17.40;7.90;;;;;;;6.45;49.87;101122.98;106662;1256;59342;-61
2024/03/06 08:39:13;;;;;;;17.60;8.10;;;;;;;6.52;49.52;101122.30;106583;1251;65702;-62
2024/03/06 08:41:42;;;;;;;20.90;9.30;;;;;;;6.51;49.26;101125.48;104460;1251;63323;-62
2024/03/06 08:44:09;;;;;;;16.10;7.20;;;;;;;6.50;49.19;101126.40;108748;1251;68830;-63
2024/03/06 08:46:37;;;;;;;17.50;8.00;;;;;;;6.47;49.15;101127.92;107726;1254;61314;-62
2024/03/06 08:49:05;;;;;;;18.60;8.30;;;;;;;6.42;49.27;101132.41;105069;1257;59112;-61
2024/03/06 08:51:37;;;;;;;19.10;9.60;;;;;;;6.41;49.49;101134.02;105039;1254;67632;-63
2024/03/06 08:54:04;;;;;;;18.00;8.70;;;;;;;6.44;49.42;101135.77;104961;1251;63678;-61
2024/03/06 08:56:34;;;;;;;18.00;9.20;;;;;;;6.46;49.26;101136.89;104938;1254;62905;-60
2024/03/06 08:59:02;;;;;;;16.50;7.90;;;;;;;6.44;49.32;101136.09;104928;1251;60628;-59
2024/03/06 09:01:30;;;;;;;19.10;8.90;;;;;;;6.43;49.28;101144.89;108841;1251;58962;-60
2024/03/06 09:03:58;;;;;;;18.60;7.90;;;;;;;6.39;49.11;101145.80;108902;1252;67089;-61
2024/03/06 09:06:27;;;;;;;22.20;8.70;;;;;;;6.31;49.10;101146.02;108836;1251;60320;-60
2024/03/06 09:08:56;;;;;;;20.00;8.60;;;;;;;6.26;49.34;101144.70;108906;1253;67155;-59
2024/03/06 09:11:23;;;;;;;18.90;8.70;;;;;;;6.22;49.52;101139.33;108866;1251;60098;-65
2024/03/06 09:13:52;;;;;;;22.40;9.00;;;;;;;6.17;49.68;101142.36;108898;1251;60897;-63
2024/03/06 09:16:19;;;;;;;21.40;8.90;;;;;;;6.14;49.87;101145.42;108864;1251;74703;-62
2024/03/06 09:18:47;;;;;;;19.30;7.50;;;;;;;6.17;49.94;101143.60;108885;1251;72286;-63
2024/03/06 09:21:15;;;;;;;14.80;7.70;;;;;;;6.20;49.90;101149.53;108794;1251;65236;-64
2024/03/06 09:23:42;;;;;;;25.20;8.70;;;;;;;6.23;49.80;101152.15;108846;1253;58508;-62
2024/03/06 09:26:10;;;;;;;19.20;9.00;;;;;;;6.26;49.82;101152.71;108764;1251;59628;-60
2024/03/06 09:28:39;;;;;;;20.50;8.90;;;;;;;6.27;49.72;101152.64;108908;1251;64175;-61
2024/03/06 09:31:07;;;;;;;20.40;7.50;;;;;;;6.29;49.68;101155.68;108843;1251;62318;-59
2024/03/06 09:33:34;;;;;;;24.40;9.20;;;;;;;6.31;49.70;101156.44;108821;1251;64173;-63
2024/03/06 09:36:02;;;;;;;17.20;7.80;;;;;;;6.32;49.65;101156.24;108824;1254;60116;-61
2024/03/06 09:38:30;;;;;;;20.70;10.10;;;;;;;6.29;49.73;101154.65;108967;1251;64514;-60
2024/03/06 09:40:58;;;;;;;20.30;9.40;;;;;;;6.25;49.60;101154.87;108817;1256;64099;-61
2024/03/06 09:43:25;;;;;;;19.60;9.20;;;;;;;6.20;49.72;101161.55;105195;1256;61973;-58
2024/03/06 09:45:56;;;;;;;18.30;10.20;;;;;;;6.17;49.77;101162.74;104713;1254;64973;-62
2024/03/06 09:48:24;;;;;;;20.30;9.10;;;;;;;6.14;49.59;101169.48;106328;1251;60435;-64
2024/03/06 09:50:52;;;;;;;15.60;7.50;;;;;;;6.13;49.55;101168.82;108808;1256;58280;-64
2024/03/06 09:53:20;;;;;;;17.60;8.60;;;;;;;6.11;49.36;101169.79;108680;1252;64068;-63
2024/03/06 09:55:47;;;;;;;17.20;8.10;;;;;;;6.10;49.36;101169.88;108794;1251;60568;-61
2024/03/06 09:58:15;;;;;;;18.90;9.60;;;;;;;6.12;49.57;101173.05;106820;1257;64005;-62
2024/03/06 10:00:44;;;;;;;19.50;11.40;;;;;;;6.18;49.51;101172.45;104364;1254;61104;-60
2024/03/06 10:03:11;;;;;;;15.90;8.00;;;;;;;6.19;49.10;101174.67;104425;1251;60445;-59
2024/03/06 10:05:39;;;;;;;16.90;8.50;;;;;;;6.14;49.14;101170.71;104520;1251;65157;-57
2024/03/06 10:08:07;;;;;;;34.20;21.00;;;;;;;6.11;49.17;101173.98;104426;1257;61975;-59
2024/03/06 10:10:38;;;;;;;17.50;8.10;;;;;;;6.08;49.33;101175.36;104514;1254;62605;-60
2024/03/06 10:13:07;;;;;;;18.00;7.90;;;;;;;6.06;49.68;101175.10;104378;1251;60563;-58
2024/03/06 10:15:36;;;;;;;20.20;10.20;;;;;;;6.05;49.79;101179.30;104345;1251;60476;-60
2024/03/06 10:18:14;;;;;;;21.30;8.60;;;;;;;6.02;49.69;101177.91;108809;1251;67511;-59
2024/03/06 10:20:43;;;;;;;21.00;9.40;;;;;;;6.00;49.98;101182.05;104677;1251;62443;-58
2024/03/06 10:23:12;;;;;;;20.20;8.80;;;;;;;5.98;49.98;101181.39;105613;1251;75530;-59
2024/03/06 10:25:40;;;;;;;20.80;9.70;;;;;;;5.98;49.91;101182.83;108451;1254;59877;-58
2024/03/06 10:28:07;;;;;;;21.20;9.60;;;;;;;5.96;49.98;101180.63;104263;1251;60452;-58
2024/03/06 10:30:36;;;;;;;21.30;8.90;;;;;;;5.90;49.92;101181.09;104902;1252;68167;-58
2024/03/06 10:33:06;;;;;;;19.90;9.90;;;;;;;5.83;49.87;101180.56;104381;1257;60444;-58
2024/03/06 10:35:39;;;;;;;18.70;9.40;;;;;;;5.76;50.02;101181.70;104783;1251;62597;-59
2024/03/06 10:38:08;;;;;;;21.90;9.10;;;;;;;5.72;50.12;101184.85;104475;1251;60434;-61
2024/03/06 10:40:36;;;;;;;17.50;8.70;;;;;;;5.72;50.08;101183.30;104679;1257;60432;-60
2024/03/06 10:43:05;;;;;;;18.90;8.50;;;;;;;5.69;50.21;101190.59;108820;1251;65645;-59
2024/03/06 10:45:56;;;;;;;22.10;10.60;;;;;;;5.64;50.32;101191.50;104968;1257;62435;-60
2024/03/06 10:48:24;;;;;;;20.80;10.40;;;;;;;5.61;50.52;101191.13;104355;1259;62668;-60
2024/03/06 10:50:52;;;;;;;17.10;8.50;;;;;;;5.60;50.56;101192.56;108763;1254;60353;-60
2024/03/06 10:53:19;;;;;;;16.90;8.60;;;;;;;5.58;50.81;101191.42;108879;1251;59093;-65
2024/03/06 10:55:52;;;;;;;20.30;9.10;;;;;;;5.58;50.90;101198.39;108853;1251;64049;-61
2024/03/06 10:58:20;;;;;;;22.00;9.80;;;;;;;5.66;50.83;101200.11;107455;1251;60947;-59
2024/03/06 11:00:48;;;;;;;18.90;8.80;;;;;;;5.76;50.46;101199.14;104462;1251;64112;-61
2024/03/06 11:03:16;;;;;;;19.00;9.10;;;;;;;5.82;50.37;101199.05;104384;1251;62355;-60
2024/03/06 11:05:47;;;;;;;22.70;9.30;;;;;;;5.84;50.33;101198.08;104832;1251;61583;-60
2024/03/06 11:08:16;;;;;;;19.50;8.80;;;;;;;5.85;50.22;101196.09;108868;1251;67682;-64
2024/03/06 11:10:45;;;;;;;18.00;8.40;;;;;;;5.82;49.75;101194.84;108876;1251;63524;-65
2024/03/06 11:13:19;;;;;;;19.50;8.90;;;;;;;5.77;49.53;101198.73;108856;1254;64637;-59
2024/03/06 11:15:47;;;;;;;19.90;7.40;;;;;;;5.76;49.90;101204.66;105443;1251;61112;-60
2024/03/06 11:18:33;;;;;;;21.90;9.00;;;;;;;5.79;49.91;101205.95;104450;1252;60482;-61
2024/03/06 11:21:01;;;;;;;16.60;8.90;;;;;;;5.81;49.82;101201.89;104523;1257;65275;-60
2024/03/06 11:23:30;;;;;;;30.70;10.80;;;;;;;5.78;49.62;101202.02;104463;1254;62316;-61
2024/03/06 11:26:03;;;;;;;24.90;11.10;;;;;;;5.70;49.62;101207.05;107076;1253;73229;-61